createdAt,value
2018-03-19T00:01:34.394Z,8.77
2018-03-19T00:04:03.289Z,6.90
2018-03-19T00:06:32.282Z,7.32
2018-03-19T00:09:01.424Z,12.23
2018-03-19T00:11:30.340Z,9.20
2018-03-19T00:13:59.364Z,14.13
2018-03-19T00:16:28.334Z,9.38
2018-03-19T00:18:57.334Z,12.27
2018-03-19T00:21:26.455Z,15.30
2018-03-19T00:23:55.355Z,15.35
2018-03-19T00:26:24.277Z,13.57
2018-03-19T00:28:53.413Z,12.90
2018-03-19T00:31:22.328Z,13.38
2018-03-19T00:33:51.299Z,15.25
2018-03-19T00:36:20.322Z,10.85
2018-03-19T00:38:49.752Z,15.77
2018-03-19T00:41:18.874Z,13.55
2018-03-19T00:43:47.780Z,16.12
2018-03-19T00:46:16.682Z,11.68
2018-03-19T00:48:45.828Z,16.73
2018-03-19T00:51:14.744Z,10.00
2018-03-19T00:53:43.655Z,12.18
2018-03-19T00:56:12.747Z,10.93
2018-03-19T00:58:41.702Z,11.07
2018-03-19T01:01:10.622Z,10.93
2018-03-19T01:03:39.560Z,14.38
2018-03-19T01:06:08.601Z,14.07
2018-03-19T01:08:37.526Z,12.07
2018-03-19T01:11:06.427Z,10.30
2018-03-19T01:13:35.368Z,12.48
2018-03-19T01:16:04.277Z,11.70
2018-03-19T01:18:33.204Z,14.77
2018-03-19T01:21:02.129Z,13.45
2018-03-19T01:23:31.144Z,12.35
2018-03-19T01:26:00.191Z,14.52
2018-03-19T01:28:29.152Z,16.75
2018-03-19T01:30:58.056Z,12.40
2018-03-19T01:33:27.124Z,11.68
2018-03-19T01:35:56.066Z,11.70
2018-03-19T01:38:24.993Z,10.23
2018-03-19T01:40:53.933Z,15.50
2018-03-19T01:43:23.096Z,10.10
2018-03-19T01:45:52.186Z,15.50
2018-03-19T01:48:21.086Z,15.65
2018-03-19T01:50:49.996Z,10.80
2018-03-19T01:53:18.954Z,11.45
2018-03-19T01:55:47.892Z,14.55
2018-03-19T01:58:16.833Z,17.17
2018-03-19T02:00:45.777Z,10.77
2018-03-19T02:03:14.701Z,11.18
2018-03-19T02:05:43.901Z,13.68
2018-03-19T02:08:12.852Z,15.55
2018-03-19T02:10:41.812Z,15.10
2018-03-19T02:13:10.786Z,14.57
2018-03-19T02:15:39.704Z,13.15
2018-03-19T02:18:08.636Z,12.02
2018-03-19T02:20:37.605Z,13.90
2018-03-19T02:23:06.556Z,13.23
2018-03-19T02:25:35.489Z,17.70
2018-03-19T02:28:04.453Z,12.32
2018-03-19T02:30:33.362Z,14.57
2018-03-19T02:33:02.377Z,14.93
2018-03-19T02:35:31.316Z,12.25
2018-03-19T02:38:00.255Z,14.35
2018-03-19T02:40:29.176Z,13.45
2018-03-19T02:42:58.139Z,11.43
2018-03-19T02:45:27.171Z,14.80
2018-03-19T02:47:56.335Z,14.52
2018-03-19T02:50:25.256Z,16.83
2018-03-19T02:52:54.188Z,13.35
2018-03-19T02:55:23.151Z,12.93
2018-03-19T02:57:52.072Z,13.62
2018-03-19T03:00:21.052Z,10.98
2018-03-19T03:02:50.079Z,15.05
2018-03-19T03:05:19.032Z,14.82
2018-03-19T03:07:47.971Z,15.73
2018-03-19T03:10:16.996Z,14.70
2018-03-19T03:12:45.948Z,10.90
2018-03-19T03:15:14.985Z,12.05
2018-03-19T03:17:43.961Z,14.98
2018-03-19T03:20:12.884Z,14.15
2018-03-19T03:22:41.808Z,13.07
2018-03-19T03:25:10.765Z,14.07
2018-03-19T03:27:39.675Z,15.13
2018-03-19T03:30:08.925Z,10.77
2018-03-19T03:32:38.001Z,12.57
2018-03-19T03:35:07.036Z,11.25
2018-03-19T03:37:35.968Z,11.52
2018-03-19T03:40:04.932Z,12.18
2018-03-19T03:42:33.975Z,14.57
2018-03-19T03:45:02.959Z,14.65
2018-03-19T03:47:31.910Z,14.52
2018-03-19T03:50:00.864Z,13.13
2018-03-19T03:52:29.812Z,14.65
2018-03-19T03:54:58.783Z,13.85
2018-03-19T03:57:27.701Z,12.75
2018-03-19T03:59:56.662Z,9.82
2018-03-19T04:02:25.568Z,12.45
2018-03-19T04:04:54.500Z,11.73
2018-03-19T04:07:23.680Z,14.52
2018-03-19T04:09:52.626Z,10.40
2018-03-19T04:12:21.768Z,12.40
2018-03-19T04:14:50.730Z,7.15
2018-03-19T04:17:19.661Z,15.57
2018-03-19T04:19:48.624Z,10.15
2018-03-19T04:22:17.572Z,18.20
2018-03-19T04:24:46.520Z,10.88
2018-03-19T04:27:15.482Z,18.00
2018-03-19T04:29:44.464Z,15.07
2018-03-19T04:32:13.396Z,15.48
2018-03-19T04:34:42.439Z,15.48
2018-03-19T04:37:11.636Z,18.60
2018-03-19T04:39:40.648Z,14.30
2018-03-19T04:42:09.568Z,12.85
2018-03-19T04:44:38.476Z,18.60
2018-03-19T04:47:07.839Z,19.62
2018-03-19T04:49:36.788Z,21.80
2018-03-19T04:52:05.716Z,18.92
2018-03-19T04:54:34.695Z,15.57
2018-03-19T04:57:03.663Z,18.40
2018-03-19T04:59:32.628Z,16.77
2018-03-19T05:02:01.651Z,14.38
2018-03-19T05:04:30.837Z,13.05
2018-03-19T05:06:59.767Z,9.80
2018-03-19T05:09:28.927Z,13.95
2018-03-19T05:11:58.136Z,15.52
2018-03-19T05:14:27.278Z,13.90
2018-03-19T05:16:56.415Z,14.00
2018-03-19T05:19:25.356Z,17.35
2018-03-19T05:21:54.298Z,14.57
2018-03-19T05:24:23.267Z,15.93
2018-03-19T05:26:52.196Z,19.15
2018-03-19T05:29:21.158Z,16.12
2018-03-19T05:31:50.322Z,13.27
2018-03-19T05:34:19.535Z,13.88
2018-03-19T05:36:48.474Z,13.25
2018-03-19T05:39:17.431Z,15.02
2018-03-19T05:41:46.420Z,13.25
2018-03-19T05:44:15.352Z,15.43
2018-03-19T05:46:44.307Z,14.52
2018-03-19T05:49:13.237Z,17.10
2018-03-19T05:51:42.245Z,19.00
2018-03-19T05:54:11.234Z,16.17
2018-03-19T05:56:40.352Z,17.65
2018-03-19T05:59:09.704Z,17.25
2018-03-19T06:01:38.709Z,16.37
2018-03-19T06:04:07.657Z,19.87
2018-03-19T06:06:36.948Z,15.18
2018-03-19T06:09:05.907Z,20.88
2018-03-19T06:11:34.846Z,22.55
2018-03-19T06:14:03.818Z,20.58
2018-03-19T06:16:32.774Z,13.48
2018-03-19T06:19:01.744Z,16.95
2018-03-19T06:21:30.698Z,20.88
2018-03-19T06:23:59.889Z,17.58
2018-03-19T06:26:29.056Z,19.30
2018-03-19T06:28:58.026Z,22.65
2018-03-19T06:31:27.006Z,16.48
2018-03-19T06:33:56.199Z,16.55
2018-03-19T06:36:25.156Z,13.77
2018-03-19T06:38:54.085Z,12.30
2018-03-19T06:41:23.040Z,19.95
2018-03-19T06:43:52.109Z,19.62
2018-03-19T06:46:21.065Z,20.15
2018-03-19T06:48:49.989Z,22.65
2018-03-19T06:51:18.955Z,20.62
2018-03-19T06:53:48.279Z,19.65
2018-03-19T06:56:17.206Z,19.48
2018-03-19T06:58:46.133Z,17.45
2018-03-19T07:01:15.091Z,11.85
2018-03-19T07:03:44.016Z,15.35
2018-03-19T07:06:13.077Z,20.95
2018-03-19T07:08:43.112Z,11.40
2018-03-19T07:11:12.062Z,14.68
2018-03-19T07:13:41.036Z,11.02
2018-03-19T07:16:10.239Z,16.48
2018-03-19T07:18:39.194Z,18.95
2018-03-19T07:21:08.157Z,11.20
2018-03-19T07:23:37.289Z,14.90
2018-03-19T07:26:06.271Z,16.60
2018-03-19T07:28:35.413Z,15.93
2018-03-19T07:31:04.523Z,19.15
2018-03-19T07:33:33.673Z,14.05
2018-03-19T07:36:02.828Z,19.92
2018-03-19T07:38:31.752Z,12.65
2018-03-19T07:41:00.805Z,15.57
2018-03-19T07:43:29.950Z,19.75
2018-03-19T07:45:58.891Z,12.20
2018-03-19T07:48:27.856Z,10.10
2018-03-19T07:50:57.022Z,17.52
2018-03-19T07:53:26.611Z,18.95
2018-03-19T07:55:55.566Z,18.50
2018-03-19T07:58:24.536Z,22.58
2018-03-19T08:00:53.569Z,17.67
2018-03-19T08:03:22.563Z,18.85
2018-03-19T08:05:51.499Z,19.85
2018-03-19T08:08:20.476Z,21.00
2018-03-19T08:10:49.684Z,28.90
2018-03-19T08:13:18.669Z,38.90
2018-03-19T08:15:47.630Z,18.42
2018-03-19T08:18:16.717Z,44.63
2018-03-19T08:20:45.645Z,58.25
2018-03-19T08:23:14.592Z,75.62
2018-03-19T08:25:43.546Z,70.35
2018-03-19T08:28:12.475Z,85.30
2018-03-19T08:30:41.436Z,97.43
2018-03-19T08:33:10.434Z,64.65
2018-03-19T08:35:39.589Z,20.60
2018-03-19T08:38:08.550Z,15.65
2018-03-19T08:40:37.544Z,18.40
2018-03-19T08:43:06.501Z,30.23
2018-03-19T08:45:35.565Z,21.77
2018-03-19T08:48:04.862Z,19.90
2018-03-19T08:50:33.767Z,21.05
2018-03-19T08:53:02.823Z,19.77
2018-03-19T08:55:31.776Z,20.25
2018-03-19T08:58:00.831Z,14.15
2018-03-19T09:00:29.817Z,17.12
2018-03-19T09:02:58.848Z,13.93
2018-03-19T09:05:27.774Z,15.15
2018-03-19T09:07:58.243Z,15.77
2018-03-19T09:10:28.741Z,10.90
2018-03-19T09:13:01.651Z,14.25
2018-03-19T09:15:34.435Z,16.02
2018-03-19T09:18:03.431Z,16.98
2018-03-19T09:20:32.521Z,14.35
2018-03-19T09:23:01.464Z,16.12
2018-03-19T09:25:30.438Z,12.27
2018-03-19T09:27:59.379Z,16.37
2018-03-19T09:30:28.318Z,14.73
2018-03-19T09:32:57.301Z,18.95
2018-03-19T09:35:26.262Z,17.05
2018-03-19T09:37:55.657Z,16.25
2018-03-19T09:40:24.658Z,16.23
2018-03-19T09:42:53.594Z,18.50
2018-03-19T09:45:22.540Z,17.50
2018-03-19T09:47:51.526Z,16.95
2018-03-19T09:50:20.481Z,21.50
2018-03-19T09:52:49.454Z,17.48
2018-03-19T09:55:18.432Z,17.45
2018-03-19T09:57:47.403Z,20.55
2018-03-19T10:00:16.698Z,21.05
2018-03-19T10:02:45.767Z,19.83
2018-03-19T10:05:14.777Z,14.65
2018-03-19T10:07:43.705Z,15.77
2018-03-19T10:10:12.675Z,16.17
2018-03-19T10:12:41.621Z,21.70
2018-03-19T10:15:10.716Z,19.27
2018-03-19T10:17:39.694Z,18.05
2018-03-19T10:20:08.635Z,19.25
2018-03-19T10:22:37.657Z,19.60
2018-03-19T10:25:06.746Z,16.45
2018-03-19T10:27:35.740Z,18.08
2018-03-19T10:30:04.633Z,15.90
2018-03-19T10:32:33.622Z,19.27
2018-03-19T10:35:02.633Z,20.80
2018-03-19T10:37:31.599Z,22.15
2018-03-19T10:40:00.563Z,14.80
2018-03-19T10:42:29.538Z,17.08
2018-03-19T10:44:58.494Z,19.15
2018-03-19T10:47:27.477Z,21.02
2018-03-19T10:49:56.600Z,15.20
2018-03-19T10:52:25.679Z,19.23
2018-03-19T10:54:54.633Z,18.15
2018-03-19T10:57:23.650Z,13.32
2018-03-19T10:59:52.598Z,19.00
2018-03-19T11:02:37.296Z,16.87
2018-03-19T11:05:22.061Z,18.92
2018-03-19T11:07:56.821Z,18.23
2018-03-19T11:10:26.620Z,23.23
2018-03-19T11:12:55.544Z,15.73
2018-03-19T11:15:24.513Z,21.58
2018-03-19T11:17:53.473Z,18.92
2018-03-19T11:20:22.458Z,17.83
2018-03-19T11:22:51.407Z,24.90
2018-03-19T11:25:20.454Z,21.12
2018-03-19T11:27:49.419Z,17.55
2018-03-19T11:30:18.518Z,18.50
2018-03-19T11:32:47.474Z,18.48
2018-03-19T11:35:16.419Z,14.87
2018-03-19T11:37:45.349Z,21.77
2018-03-19T11:40:14.294Z,17.62
2018-03-19T11:42:43.284Z,20.50
2018-03-19T11:45:12.314Z,20.55
2018-03-19T11:47:41.258Z,22.40
2018-03-19T11:50:10.362Z,17.02
2018-03-19T11:52:39.315Z,15.60
2018-03-19T11:55:08.215Z,14.38
2018-03-19T11:57:37.149Z,20.35
2018-03-19T12:00:06.078Z,18.20
2018-03-19T12:02:35.064Z,22.95
2018-03-19T12:05:04.066Z,19.77
2018-03-19T12:07:33.238Z,18.65
2018-03-19T12:10:02.177Z,17.87
2018-03-19T12:12:31.134Z,20.15
2018-03-19T12:15:00.057Z,15.52
2018-03-19T12:17:29.043Z,20.70
2018-03-19T12:19:57.981Z,22.23
2018-03-19T12:22:26.906Z,22.55
2018-03-19T12:24:55.877Z,18.90
2018-03-19T12:27:24.824Z,17.27
2018-03-19T12:29:53.763Z,19.75
2018-03-19T12:32:22.708Z,19.65
2018-03-19T12:34:51.643Z,19.23
2018-03-19T12:37:20.883Z,33.75
2018-03-19T12:39:49.938Z,26.70
2018-03-19T12:42:18.863Z,22.35
2018-03-19T12:44:47.874Z,21.35
2018-03-19T12:47:16.830Z,19.05
2018-03-19T12:49:45.855Z,20.27
2018-03-19T12:52:14.861Z,18.00
2018-03-19T12:54:43.888Z,17.65
2018-03-19T12:57:13.037Z,17.83
2018-03-19T12:59:41.952Z,19.30
2018-03-19T13:02:11.038Z,17.92
2018-03-19T13:04:40.022Z,19.25
2018-03-19T13:07:08.956Z,22.73
2018-03-19T13:09:37.900Z,19.17
2018-03-19T13:12:06.866Z,22.73
2018-03-19T13:14:35.795Z,22.37
2018-03-19T13:17:04.750Z,20.90
2018-03-19T13:19:33.716Z,17.27
2018-03-19T13:22:02.722Z,17.40
2018-03-19T13:24:31.721Z,18.50
2018-03-19T13:27:00.652Z,18.40
2018-03-19T13:29:29.560Z,14.63
2018-03-19T13:31:58.498Z,19.52
2018-03-19T13:34:27.908Z,26.85
2018-03-19T13:36:56.835Z,21.75
2018-03-19T13:39:25.822Z,19.05
2018-03-19T13:41:54.734Z,22.00
2018-03-19T13:44:23.673Z,18.87
2018-03-19T13:46:52.650Z,17.00
2018-03-19T13:49:21.621Z,21.87
2018-03-19T13:51:50.581Z,19.95
2018-03-19T13:54:19.562Z,20.25
2018-03-19T13:56:48.517Z,21.95
2018-03-19T13:59:17.510Z,23.52
2018-03-19T14:01:46.458Z,21.98
2018-03-19T14:04:15.369Z,23.73
2018-03-19T14:06:44.320Z,22.42
2018-03-19T14:09:13.253Z,27.37
2018-03-19T14:11:42.221Z,29.17
2018-03-19T14:14:11.425Z,29.75
2018-03-19T14:16:40.364Z,26.98
2018-03-19T14:19:10.249Z,24.25
2018-03-19T14:21:39.221Z,23.85
2018-03-19T14:24:08.162Z,21.70
2018-03-19T14:26:37.132Z,23.75
2018-03-19T14:29:06.092Z,24.65
2018-03-19T14:31:35.049Z,25.60
2018-03-19T14:34:04.258Z,25.35
2018-03-19T14:36:33.224Z,26.42
2018-03-19T14:39:02.456Z,24.10
2018-03-19T14:41:31.405Z,26.15
2018-03-19T14:44:00.367Z,26.17
2018-03-19T14:46:29.621Z,22.77
2018-03-19T14:48:58.585Z,23.62
2018-03-19T14:51:27.558Z,29.42
2018-03-19T14:53:56.501Z,28.58
2018-03-19T14:56:25.428Z,21.58
2018-03-19T14:58:54.376Z,19.10
2018-03-19T15:01:23.323Z,23.95
2018-03-19T15:03:52.374Z,21.80
2018-03-19T15:06:21.463Z,24.02
2018-03-19T15:08:50.438Z,23.20
2018-03-19T15:11:19.369Z,23.50
2018-03-19T15:13:48.363Z,25.15
2018-03-19T15:16:17.962Z,26.37
2018-03-19T15:18:46.899Z,26.73
2018-03-19T15:21:15.866Z,28.52
2018-03-19T15:23:44.800Z,26.37
2018-03-19T15:26:13.844Z,26.20
2018-03-19T15:28:42.771Z,31.77
2018-03-19T15:31:11.917Z,30.65
2018-03-19T15:33:40.917Z,29.12
2018-03-19T15:36:09.836Z,33.15
2018-03-19T15:38:38.758Z,28.62
2018-03-19T15:41:07.713Z,29.50
2018-03-19T15:43:36.672Z,24.20
2018-03-19T15:46:05.632Z,32.78
2018-03-19T15:48:34.590Z,27.95
2018-03-19T15:51:03.560Z,28.85
2018-03-19T15:53:32.747Z,31.23
2018-03-19T15:56:01.701Z,27.08
2018-03-19T15:58:30.924Z,28.62
2018-03-19T16:00:59.908Z,27.35
2018-03-19T16:03:28.816Z,25.50
2018-03-19T16:05:57.750Z,27.00
2018-03-19T16:08:26.943Z,27.73
2018-03-19T16:10:56.292Z,23.33
2018-03-19T16:13:25.507Z,28.70
2018-03-19T16:15:54.627Z,29.92
2018-03-19T16:18:23.782Z,27.62
2018-03-19T16:20:52.951Z,29.50
2018-03-19T16:23:31.046Z,29.10
2018-03-19T16:25:59.984Z,26.87
2018-03-19T16:28:28.895Z,30.17
2018-03-19T16:30:57.838Z,32.78
2018-03-19T16:33:26.988Z,39.15
2018-03-19T16:35:55.944Z,47.85
2018-03-19T16:38:24.895Z,43.35
2018-03-19T16:40:53.880Z,44.10
2018-03-19T16:43:22.886Z,33.90
2018-03-19T16:45:51.944Z,37.97
2018-03-19T16:48:20.933Z,35.38
2018-03-19T16:50:49.912Z,42.03
2018-03-19T16:53:19.684Z,47.08
2018-03-19T16:55:48.675Z,46.00
2018-03-19T16:58:17.627Z,40.63
2018-03-19T17:00:46.823Z,35.92
2018-03-19T17:03:15.823Z,32.20
2018-03-19T17:05:44.753Z,35.88
2018-03-19T17:08:13.711Z,33.20
2018-03-19T17:16:41.623Z,44.10
2018-03-19T17:19:23.499Z,39.20
2018-03-19T17:22:08.307Z,37.20
2018-03-19T17:30:11.863Z,40.03
2018-03-19T17:38:21.307Z,38.10
2018-03-19T17:41:04.462Z,46.85
2018-03-19T17:57:39.385Z,42.10
2018-03-19T18:00:26.390Z,46.37
2018-03-19T18:03:09.010Z,42.03
2018-03-19T18:19:35.600Z,103.60
2018-03-19T18:27:53.948Z,112.68
2018-03-19T18:30:36.897Z,151.00
2018-03-19T18:38:49.837Z,201.40
2018-03-19T18:41:28.678Z,137.48
2018-03-19T18:44:15.014Z,181.70
2018-03-19T19:00:43.407Z,78.10
2018-03-19T19:09:00.745Z,49.40
2018-03-19T19:14:17.124Z,39.58
2018-03-19T19:16:46.019Z,44.28
2018-03-19T19:19:14.931Z,42.13
2018-03-19T19:21:43.955Z,43.60
2018-03-19T19:24:12.888Z,45.88
2018-03-19T19:26:41.974Z,47.67
2018-03-19T19:29:10.916Z,52.00
2018-03-19T19:31:39.922Z,53.87
2018-03-19T19:34:09.017Z,77.37
2018-03-19T19:36:37.916Z,57.30
2018-03-19T19:39:06.846Z,66.53
2018-03-19T19:41:35.919Z,67.30
2018-03-19T19:44:04.916Z,74.75
2018-03-19T19:46:33.832Z,64.22
2018-03-19T19:49:02.787Z,71.30
2018-03-19T19:51:31.793Z,73.32
2018-03-19T19:54:00.806Z,71.22
2018-03-19T19:56:29.766Z,45.55
2018-03-19T19:58:58.778Z,47.08
2018-03-19T20:01:27.697Z,51.42
2018-03-19T20:03:56.642Z,45.50
2018-03-19T20:06:26.227Z,46.53
2018-03-19T20:08:55.124Z,50.60
2018-03-19T20:11:24.058Z,49.58
2018-03-19T20:13:52.956Z,48.87
2018-03-19T20:16:21.924Z,55.60
2018-03-19T20:18:50.830Z,45.85
2018-03-19T20:21:19.728Z,49.65
2018-03-19T20:23:48.660Z,50.75
2018-03-19T20:26:17.583Z,52.72
2018-03-19T20:28:46.520Z,52.55
2018-03-19T20:31:15.424Z,55.30
2018-03-19T20:33:44.389Z,65.20
2018-03-19T20:36:13.305Z,68.00
2018-03-19T20:38:42.270Z,59.05
2018-03-19T20:41:11.198Z,54.83
2018-03-19T20:43:40.107Z,56.15
2018-03-19T20:46:09.027Z,55.95
2018-03-19T20:48:37.949Z,51.05
2018-03-19T20:51:06.891Z,52.38
2018-03-19T20:53:35.796Z,52.42
2018-03-19T20:56:04.727Z,55.22
2018-03-19T20:58:33.630Z,42.85
2018-03-19T21:01:02.529Z,43.17
2018-03-19T21:03:31.479Z,48.92
2018-03-19T21:06:00.403Z,44.45
2018-03-19T21:08:29.363Z,41.63
2018-03-19T21:10:58.291Z,49.65
2018-03-19T21:13:27.216Z,56.75
2018-03-19T21:15:56.171Z,71.20
2018-03-19T21:18:25.077Z,78.25
2018-03-19T21:20:53.989Z,59.63
2018-03-19T21:23:22.899Z,56.08
2018-03-19T21:25:51.806Z,50.85
2018-03-19T21:28:20.784Z,70.53
2018-03-19T21:30:49.710Z,80.95
2018-03-19T21:33:18.611Z,86.75
2018-03-19T21:35:47.588Z,83.05
2018-03-19T21:38:16.508Z,62.62
2018-03-19T21:40:45.419Z,56.33
2018-03-19T21:43:14.362Z,55.35
2018-03-19T21:45:43.292Z,54.22
2018-03-19T21:48:12.232Z,59.80
2018-03-19T21:50:41.134Z,54.03
2018-03-19T21:53:10.043Z,56.22
2018-03-19T21:55:39.059Z,60.53
2018-03-19T21:58:07.964Z,55.40
2018-03-19T22:00:36.896Z,55.63
2018-03-19T22:03:05.852Z,55.05
2018-03-19T22:05:34.742Z,54.22
2018-03-19T22:08:03.662Z,49.60
2018-03-19T22:10:32.558Z,48.85
2018-03-19T22:13:01.497Z,51.37
2018-03-19T22:15:30.555Z,49.67
2018-03-19T22:17:59.501Z,53.45
2018-03-19T22:20:28.444Z,53.33
2018-03-19T22:22:57.379Z,44.92
2018-03-19T22:25:26.369Z,47.70
2018-03-19T22:27:55.285Z,48.20
2018-03-19T22:30:24.196Z,47.20
2018-03-19T22:32:53.160Z,45.67
2018-03-19T22:35:22.263Z,40.03
2018-03-19T22:37:51.171Z,49.08
2018-03-19T22:40:20.091Z,50.42
2018-03-19T22:42:49.025Z,48.05
2018-03-19T22:45:17.948Z,45.65
2018-03-19T22:47:47.222Z,46.90
2018-03-19T22:50:16.701Z,44.60
2018-03-19T22:52:45.638Z,48.55
2018-03-19T22:55:14.686Z,52.55
2018-03-19T22:57:43.595Z,46.60
2018-03-19T23:00:12.565Z,44.55
2018-03-19T23:02:41.504Z,54.53
2018-03-19T23:05:25.188Z,47.72
2018-03-19T23:07:54.092Z,41.90
2018-03-19T23:10:23.000Z,42.55
2018-03-19T23:12:52.055Z,48.38
2018-03-19T23:15:20.947Z,49.40
2018-03-19T23:17:49.890Z,43.25
2018-03-19T23:20:18.855Z,43.58
2018-03-19T23:22:47.811Z,41.83
2018-03-19T23:25:16.936Z,43.67
2018-03-19T23:27:45.886Z,37.58
2018-03-19T23:30:14.834Z,43.45
2018-03-19T23:32:43.829Z,41.72
2018-03-19T23:35:12.768Z,43.25
2018-03-19T23:37:41.718Z,40.88
2018-03-19T23:40:10.650Z,42.35
2018-03-19T23:42:39.554Z,43.38
2018-03-19T23:45:08.506Z,39.25
2018-03-19T23:47:37.426Z,41.40
2018-03-19T23:50:06.346Z,41.65
2018-03-19T23:52:35.306Z,43.42
2018-03-19T23:55:04.208Z,43.20
2018-03-19T23:57:33.172Z,39.92
